Change the Weather History Date:

Thursday, November 28, 2013

  Actual Average Record
Temperature  
Mean Temperature 24 °F -  
Max Temperature 33 °F 45 °F 69 °F (2006)
Min Temperature 14 °F 27 °F 12 °F (2002)
Degree Days  
Heating Degree Days 42    
Moisture  
Dew Point 18 °F    
Average Humidity 73    
Maximum Humidity 93    
Minimum Humidity 52    
Precipitation  
Precipitation 0.00 in - - ()
Sea Level Pressure  
Sea Level Pressure 30.33 in    
Wind  
Wind Speed 8 mph (NW)    
Max Wind Speed 20 mph    
Max Gust Speed 24 mph    
Visibility 10 miles    
Events      
Averages and records for this station are not official NWS values.
T = Trace of Precipitation, MM = Missing Value Source: NWS Daily Summary

Daily Weather History Graph

Daily Weather History Graph

Search for Another Location

Airport or City:

Trip Planner

Search our weather history database for the weather conditions in past years. The results will help you decide how hot, cold, wet, or windy it might be!

Date:

Astronomy

Nov. 28, 2013 Rise Set
Actual Time 7:21 AM CST 4:54 PM CST
Civil Twilight 6:51 AM CST 5:24 PM CST
Nautical Twilight 6:17 AM CST 5:58 PM CST
Astronomical Twilight 5:44 AM CST 6:31 PM CST
Moon 2:23 AM CST (11/28) 2:05 PM CST (11/28)
Length of Visible Light 10h 32m
Length of Day
9h 32m
Waning Crescent, 22% of the Moon is Illuminated
Nov 28
Waning Crescent
Dec 2
New
Dec 9
First Quarter
Dec 17
Full
Dec 25
Last Quarter

Hourly Weather History & Observations

Time (CST) Temp. Windchill Dew Point Humidity Pressure Visibility Wind Dir Wind Speed Gust Speed Precip Events Conditions
12:15 AM 24.8 °F 16.1 °F 17.6 °F 74% 30.09 in 10.0 mi South 8.1 mph - N/A   Clear
12:35 AM 24.8 °F 16.1 °F 17.6 °F 74% 30.09 in 10.0 mi South 8.1 mph - N/A   Clear
12:55 AM 24.8 °F 17.9 °F 17.6 °F 74% 30.09 in 10.0 mi South 5.8 mph - N/A   Clear
1:15 AM 24.8 °F 16.9 °F 17.6 °F 74% 30.09 in 10.0 mi SSW 6.9 mph - N/A   Clear
1:35 AM 24.8 °F 16.9 °F 17.6 °F 74% 30.10 in 10.0 mi SSW 6.9 mph - N/A   Clear
1:55 AM 24.8 °F 16.1 °F 19.4 °F 80% 30.10 in 10.0 mi SW 8.1 mph - N/A   Clear
2:15 AM 24.8 °F 15.3 °F 19.4 °F 80% 30.11 in 10.0 mi SW 9.2 mph - N/A   Clear
2:35 AM 26.6 °F 18.2 °F 19.4 °F 74% 30.11 in 10.0 mi WSW 8.1 mph - N/A   Clear
2:55 AM 26.6 °F 18.2 °F 19.4 °F 74% 30.12 in 10.0 mi WSW 8.1 mph - N/A   Clear
3:15 AM 26.6 °F 19.1 °F 19.4 °F 74% 30.12 in 10.0 mi WSW 6.9 mph - N/A   Clear
3:35 AM 24.8 °F 16.9 °F 19.4 °F 80% 30.12 in 10.0 mi West 6.9 mph - N/A   Clear
3:55 AM 24.8 °F 17.9 °F 21.2 °F 86% 30.13 in 10.0 mi WSW 5.8 mph - N/A   Clear
4:15 AM 24.8 °F 16.1 °F 19.4 °F 80% 30.13 in 10.0 mi West 8.1 mph - N/A   Clear
4:35 AM 26.6 °F 16.8 °F 21.2 °F 80% 30.14 in 10.0 mi West 10.4 mph - N/A   Clear
4:55 AM 26.6 °F 16.8 °F 21.2 °F 80% 30.15 in 10.0 mi WNW 10.4 mph - N/A   Clear
5:15 AM 26.6 °F 16.8 °F 21.2 °F 80% 30.16 in 10.0 mi NW 10.4 mph - N/A   Clear
5:35 AM 26.6 °F 16.2 °F 21.2 °F 80% 30.17 in 10.0 mi NW 11.5 mph - N/A   Clear
5:55 AM 26.6 °F 16.8 °F 21.2 °F 80% 30.19 in 10.0 mi NW 10.4 mph - N/A   Clear
6:15 AM 26.6 °F 16.2 °F 21.2 °F 80% 30.20 in 10.0 mi NW 11.5 mph - N/A   Clear
6:35 AM 26.6 °F 16.8 °F 19.4 °F 74% 30.21 in 10.0 mi NW 10.4 mph - N/A   Clear
6:55 AM 26.6 °F 16.2 °F 19.4 °F 74% 30.23 in 10.0 mi NW 11.5 mph - N/A   Clear
7:15 AM 26.6 °F 15.7 °F 19.4 °F 74% 30.24 in 10.0 mi NW 12.7 mph - N/A   Clear
7:35 AM 24.8 °F 12.9 °F 19.4 °F 80% 30.25 in 10.0 mi NNW 13.8 mph - N/A   Clear
7:55 AM 24.8 °F 14.0 °F 19.4 °F 80% 30.27 in 10.0 mi NNW 11.5 mph 19.6 mph N/A   Clear
8:15 AM 24.8 °F 14.6 °F 21.2 °F 86% 30.29 in 10.0 mi NNW 10.4 mph 17.3 mph N/A   Clear
8:35 AM 24.8 °F 12.9 °F 19.4 °F 80% 30.30 in 10.0 mi NNW 13.8 mph 20.7 mph N/A   Clear
8:55 AM 26.6 °F 15.2 °F 19.4 °F 74% 30.31 in 10.0 mi NNW 13.8 mph - N/A   Clear
9:15 AM 26.6 °F 13.4 °F 19.4 °F 74% 30.32 in 10.0 mi NNW 18.4 mph - N/A   Clear
9:35 AM 28.4 °F 17.5 °F 19.4 °F 69% 30.33 in 10.0 mi NNW 13.8 mph 23.0 mph N/A   Clear
9:55 AM 28.4 °F 16.2 °F 19.4 °F 69% 30.34 in 10.0 mi NNW 17.3 mph - N/A   Clear
10:15 AM 28.4 °F 15.8 °F 17.6 °F 64% 30.34 in 10.0 mi North 18.4 mph - N/A   Clear
10:35 AM 30.2 °F 18.9 °F 17.6 °F 60% 30.35 in 10.0 mi North 16.1 mph 23.0 mph N/A   Clear
10:55 AM 30.2 °F 17.8 °F 17.6 °F 60% 30.36 in 10.0 mi North 19.6 mph - N/A   Clear
11:15 AM 32.0 °F 21.6 °F 17.6 °F 55% 30.36 in 10.0 mi North 15.0 mph 23.0 mph N/A   Clear
11:35 AM 32.0 °F 20.8 °F 17.6 °F 55% 30.36 in 10.0 mi NNW 17.3 mph 24.2 mph N/A   Clear
11:55 AM 32.0 °F 20.8 °F 17.6 °F 55% 30.36 in 10.0 mi NNW 17.3 mph - N/A   Clear
12:35 PM 33.8 °F 23.5 °F 17.6 °F 52% 30.37 in 10.0 mi North 16.1 mph 23.0 mph N/A   Clear
12:55 PM 33.8 °F 23.9 °F 17.6 °F 52% 30.37 in 10.0 mi NNW 15.0 mph 20.7 mph N/A   Clear
1:15 PM 33.8 °F 23.2 °F 17.6 °F 52% 30.37 in 10.0 mi NNW 17.3 mph - N/A   Clear
1:35 PM 33.8 °F 23.5 °F 17.6 °F 52% 30.38 in 10.0 mi NNW 16.1 mph - N/A   Clear
1:55 PM 33.8 °F 23.5 °F 17.6 °F 52% 30.38 in 10.0 mi North 16.1 mph - N/A   Clear
2:15 PM 33.8 °F 25.3 °F 17.6 °F 52% 30.38 in 10.0 mi North 11.5 mph - N/A   Clear
2:35 PM 33.8 °F 25.8 °F 17.6 °F 52% 30.39 in 10.0 mi North 10.4 mph - N/A   Clear
2:55 PM 33.8 °F 25.8 °F 17.6 °F 52% 30.39 in 10.0 mi North 10.4 mph 17.3 mph N/A   Clear
3:15 PM 33.8 °F 27.7 °F 17.6 °F 52% 30.40 in 10.0 mi Variable 6.9 mph 15.0 mph N/A   Clear
3:35 PM 33.8 °F 26.4 °F 17.6 °F 52% 30.41 in 10.0 mi North 9.2 mph - N/A   Clear
3:55 PM 33.8 °F 26.4 °F 17.6 °F 52% 30.41 in 10.0 mi North 9.2 mph - N/A   Clear
4:15 PM 32.0 °F 24.8 °F 17.6 °F 55% 30.42 in 10.0 mi North 8.1 mph - N/A   Clear
4:35 PM 32.0 °F 26.4 °F 17.6 °F 55% 30.43 in 10.0 mi North 5.8 mph - N/A   Clear
4:55 PM 30.2 °F 26.7 °F 17.6 °F 60% 30.43 in 10.0 mi North 3.5 mph - N/A   Clear
5:15 PM 28.4 °F - 17.6 °F 64% 30.44 in 10.0 mi Calm Calm - N/A   Clear
5:35 PM 28.4 °F - 17.6 °F 64% 30.44 in 10.0 mi Calm Calm - N/A   Clear
5:55 PM 24.8 °F - 17.6 °F 74% 30.46 in 10.0 mi Calm Calm - N/A   Clear
6:15 PM 21.2 °F - 15.8 °F 80% 30.46 in 10.0 mi Calm Calm - N/A   Clear
6:35 PM 21.2 °F - 17.6 °F 86% 30.47 in 10.0 mi Calm Calm - N/A   Clear
6:55 PM 21.2 °F - 17.6 °F 86% 30.46 in 10.0 mi Calm Calm - N/A   Clear
7:15 PM 19.4 °F - 15.8 °F 86% 30.47 in 10.0 mi Calm Calm - N/A   Clear
7:35 PM 19.4 °F - 15.8 °F 86% 30.47 in 10.0 mi Calm Calm - N/A   Clear
7:55 PM 17.6 °F - 15.8 °F 93% 30.48 in 10.0 mi Calm Calm - N/A   Clear
8:15 PM 17.6 °F - 14.0 °F 86% 30.48 in 10.0 mi Calm Calm - N/A   Clear
8:35 PM 17.6 °F - 15.8 °F 93% 30.48 in 10.0 mi Calm Calm - N/A   Clear
8:55 PM 17.6 °F - 14.0 °F 86% 30.48 in 10.0 mi Calm Calm - N/A   Clear
9:15 PM 14.0 °F - 10.4 °F 86% 30.49 in 10.0 mi Calm Calm - N/A   Clear
9:35 PM 14.0 °F - 12.2 °F 93% 30.50 in 10.0 mi Calm Calm - N/A   Clear
9:55 PM 14.0 °F - 12.2 °F 93% 30.50 in 10.0 mi Calm Calm - N/A   Clear
10:15 PM 15.8 °F - 14.0 °F 93% 30.51 in 10.0 mi Calm Calm - N/A   Clear
10:35 PM 14.0 °F - 12.2 °F 93% 30.51 in 10.0 mi Calm Calm - N/A   Clear
10:55 PM 14.0 °F - 12.2 °F 93% 30.51 in 10.0 mi Calm Calm - N/A   Clear
11:15 PM 14.0 °F - 12.2 °F 93% 30.51 in 10.0 mi Calm Calm - N/A   Clear
11:35 PM 14.0 °F - 12.2 °F 93% 30.51 in 10.0 mi Calm Calm - N/A   Clear
11:55 PM 14.0 °F - 12.2 °F 93% 30.52 in 10.0 mi Calm Calm - N/A   Clear